»·PEaware :: N6262K KPSP-KSAN

N6262K :: KPSP-KSAN

FLIGHT INFORMATION

Flight Status: Arrived
Operator: Privately registered:
United States
More flights under this callsign
Pilot: Judson K. (15650)
Aircraft: CESSNA 172 SKYHAWK
(C172)
More flights by this aircraft type
Origin: KPSP Palm Springs Intl
United States
Destination: KSAN San Diego Intl-Lindbergh
United States
More flights between these airports :: More routes between these airports
Route: +CATH1 PSP TRM V208 JLI V514 CANNO MZB
File this flight plan on PilotEdge
Remarks:
Altitude:
(Current/Filed)
10,000ft
Speed:
(Current/Filed)
110kts
Departed: 05-Oct-17 06:17 PM
Arrived: 05-Oct-17 07:29 PM
Distance/Time
Traveled:
74nm/1:11
Distance/Time
To Go:
Arrived

Flight Plot

Page will automatically refresh every two minutes.

Flight plan parsing failed; only flown route is shown


Map Options




Map Legend


Flown Route
Filed Route
Departure Airport
Arrival Airport
Navaid (VOR, NDB)
Fix

Horizontal Profiles

Position Reports

Time Latitude Longitude Heading Altitude Ground
Speed
05-Oct-17 17:46 33.823046 -116.497304 52 480ft 0kts
05-Oct-17 17:47 33.823046 -116.497304 52 480ft 0kts
05-Oct-17 17:48 33.823046 -116.497304 52 480ft 0kts
05-Oct-17 17:49 33.823046 -116.497304 52 480ft 0kts
05-Oct-17 17:50 33.823046 -116.497304 52 480ft 0kts
05-Oct-17 17:51 33.823046 -116.497304 52 480ft 0kts
05-Oct-17 17:52 33.823046 -116.497304 52 480ft 0kts
05-Oct-17 17:53 33.823046 -116.497304 52 480ft 0kts
05-Oct-17 17:54 33.823046 -116.497304 52 480ft 0kts
05-Oct-17 17:55 33.823046 -116.497304 52 480ft 0kts
05-Oct-17 17:56 33.823046 -116.497304 52 480ft 0kts
05-Oct-17 17:57 33.823047 -116.497304 52 480ft 0kts
05-Oct-17 17:58 33.823047 -116.497304 52 480ft 0kts
05-Oct-17 17:59 33.823047 -116.497304 52 480ft 0kts
05-Oct-17 18:00 33.823047 -116.497304 52 480ft 0kts
05-Oct-17 18:01 33.823047 -116.497304 52 480ft 0kts
05-Oct-17 18:02 33.823047 -116.497304 52 480ft 0kts
05-Oct-17 18:03 33.823047 -116.497304 52 480ft 0kts
05-Oct-17 18:04 33.823047 -116.497304 52 480ft 0kts
05-Oct-17 18:05 33.823047 -116.497304 52 480ft 0kts
05-Oct-17 18:06 33.823047 -116.497304 52 480ft 0kts
05-Oct-17 18:07 33.823047 -116.497304 52 480ft 0kts
05-Oct-17 18:08 33.823047 -116.497304 52 480ft 0kts
05-Oct-17 18:09 33.823047 -116.497304 52 480ft 0kts
05-Oct-17 18:10 33.823047 -116.497304 52 480ft 0kts
05-Oct-17 18:11 33.823047 -116.497304 52 480ft 0kts
05-Oct-17 18:12 33.823047 -116.497304 52 480ft 0kts
05-Oct-17 18:13 33.823047 -116.497304 52 480ft 0kts
05-Oct-17 18:14 33.823047 -116.497304 52 480ft 0kts
05-Oct-17 18:15 33.823047 -116.497304 52 480ft 0kts
05-Oct-17 18:16 33.823047 -116.497304 52 480ft 0kts
05-Oct-17 18:17 33.823481 -116.497529 329 480ft 13kts
05-Oct-17 18:18 33.824792 -116.499033 277 480ft 0kts
05-Oct-17 18:19 33.824578 -116.499674 233 480ft 0kts
05-Oct-17 18:20 33.824550 -116.499719 233 480ft 4kts
05-Oct-17 18:21 33.835839 -116.511158 321 967ft 81kts
05-Oct-17 18:22 33.853842 -116.529091 321 1970ft 87kts
05-Oct-17 18:23 33.873245 -116.546974 321 2948ft 92kts
05-Oct-17 18:24 33.895106 -116.565206 328 3774ft 100kts
05-Oct-17 18:25 33.913465 -116.550855 112 4562ft 89kts
05-Oct-17 18:26 33.903941 -116.524051 123 5354ft 86kts
05-Oct-17 18:27 33.895389 -116.499837 125 6026ft 80kts
05-Oct-17 18:28 33.885778 -116.473419 124 6551ft 93kts
05-Oct-17 18:29 33.875195 -116.443607 121 7061ft 100kts
05-Oct-17 18:30 33.860731 -116.416320 151 7557ft 95kts
05-Oct-17 18:31 33.840594 -116.395143 150 8050ft 97kts
05-Oct-17 18:32 33.820187 -116.373157 149 8540ft 99kts
05-Oct-17 18:33 33.799521 -116.350514 149 9031ft 101kts
05-Oct-17 18:34 33.778787 -116.327599 148 9519ft 102kts
05-Oct-17 18:35 33.758066 -116.304530 148 9974ft 103kts
05-Oct-17 18:36 33.733717 -116.278076 142 9948ft 125kts
05-Oct-17 18:37 33.708686 -116.249843 143 9939ft 118kts
05-Oct-17 18:38 33.685628 -116.223930 148 9943ft 111kts
05-Oct-17 18:39 33.662076 -116.201623 189 9943ft 96kts
05-Oct-17 18:40 33.641644 -116.217042 220 9944ft 87kts
05-Oct-17 18:41 33.621375 -116.233279 219 9944ft 88kts
05-Oct-17 18:42 33.600801 -116.249236 219 9944ft 88kts
05-Oct-17 18:43 33.579476 -116.265413 218 9992ft 95kts
05-Oct-17 18:44 33.556067 -116.282893 217 9991ft 101kts
05-Oct-17 18:45 33.531876 -116.300782 217 9990ft 102kts
05-Oct-17 18:46 33.507403 -116.318745 217 9989ft 103kts
05-Oct-17 18:47 33.482942 -116.336596 217 9989ft 103kts
05-Oct-17 18:48 33.458485 -116.354471 216 9989ft 103kts
05-Oct-17 18:49 33.433956 -116.372388 217 9989ft 103kts
05-Oct-17 18:50 33.409432 -116.390290 217 9989ft 103kts
05-Oct-17 18:51 33.385091 -116.408050 216 9989ft 103kts
05-Oct-17 18:52 33.360705 -116.425838 216 9989ft 103kts
05-Oct-17 18:53 33.336180 -116.443697 217 9989ft 103kts
05-Oct-17 18:54 33.311815 -116.461534 217 9989ft 103kts
05-Oct-17 18:55 33.287329 -116.479395 217 9989ft 103kts
05-Oct-17 18:56 33.262823 -116.497083 217 9989ft 103kts
05-Oct-17 18:57 33.238813 -116.514492 218 10075ft 94kts
05-Oct-17 18:58 33.216663 -116.530614 218 10117ft 95kts
05-Oct-17 18:59 33.193897 -116.547238 218 10116ft 96kts
05-Oct-17 19:00 33.169837 -116.564582 217 9996ft 101kts
05-Oct-17 19:01 33.146374 -116.581578 217 9996ft 97kts
05-Oct-17 19:02 33.119733 -116.589350 193 9997ft 103kts
05-Oct-17 19:03 33.090650 -116.595155 201 9775ft 114kts
05-Oct-17 19:04 33.058996 -116.604121 201 9368ft 117kts
05-Oct-17 19:05 33.027502 -116.613107 200 8943ft 114kts
05-Oct-17 19:06 32.997603 -116.621388 200 8606ft 100kts
05-Oct-17 19:07 32.973090 -116.627276 200 9000ft 86kts
05-Oct-17 19:08 32.947114 -116.633740 200 9023ft 102kts
05-Oct-17 19:09 32.918903 -116.641241 200 9024ft 105kts
05-Oct-17 19:10 32.892054 -116.648210 201 9022ft 97kts
05-Oct-17 19:11 32.866702 -116.657716 207 8898ft 105kts
05-Oct-17 19:12 32.838562 -116.673061 211 8437ft 113kts
05-Oct-17 19:13 32.810360 -116.688758 211 7945ft 111kts
05-Oct-17 19:14 32.782596 -116.704295 211 7455ft 110kts
05-Oct-17 19:15 32.754908 -116.719777 211 6965ft 110kts
05-Oct-17 19:16 32.727312 -116.735892 211 6476ft 112kts
05-Oct-17 19:17 32.699267 -116.752441 211 5982ft 114kts
05-Oct-17 19:18 32.675480 -116.774731 251 5489ft 110kts
05-Oct-17 19:19 32.665096 -116.808906 251 5020ft 108kts
05-Oct-17 19:20 32.655683 -116.840358 251 4999ft 98kts
05-Oct-17 19:21 32.655815 -116.870676 282 4999ft 93kts
05-Oct-17 19:22 32.663036 -116.900631 283 5001ft 95kts
05-Oct-17 19:23 32.670434 -116.930888 283 5000ft 95kts
05-Oct-17 19:24 32.678326 -116.962946 283 4776ft 104kts
05-Oct-17 19:25 32.686997 -116.998426 284 4066ft 114kts
05-Oct-17 19:26 32.695186 -117.031940 284 3302ft 110kts
05-Oct-17 19:27 32.704120 -117.068602 285 2456ft 109kts
05-Oct-17 19:28 32.711410 -117.098780 286 1911ft 66kts
05-Oct-17 19:29 32.716436 -117.119238 288 1423ft 64kts
05-Oct-17 19:30 32.721453 -117.140241 287 935ft 62kts
05-Oct-17 19:31 32.726317 -117.160133 290 472ft 63kts
05-Oct-17 19:32 32.731180 -117.179862 291 85ft 63kts
05-Oct-17 19:33 32.733993 -117.188170 19 20ft 0kts
05-Oct-17 19:34 32.735120 -117.189217 207 20ft 0kts
05-Oct-17 19:35 32.735120 -117.189217 207 20ft 0kts
05-Oct-17 19:36 32.735120 -117.189217 207 20ft 0kts
05-Oct-17 19:37 32.735120 -117.189217 207 20ft 0kts
05-Oct-17 19:38 32.735120 -117.189217 207 20ft 0kts

Navigation Log

Ident Type
Flight plan parsing failed, navigation log unavailable